aviador You're here:

SCCY Decoded Metar

COYHAIQUE in CHILE
Report Time2017-11-25 07:00:00
UTC Time2017-11-25 07:34:55
Flight Rules vfr VFR
Wind070° at 05 kt
W.Decomp.*RWY 03: 4.4 kt HW 2.4 kt RCW
W.Rank070° ranks 24
Current wind is above 070° avg. (4.9)
Visibility9999 m
Phenomena:N/A
Clouds:Few 040 Hf
Expected CloudBase > 1,600 ft AGL from Temp-Dew spread
CeilingNone
Temp10°C (ISA -3)
Dew Point06°C (76% RH)
AAT7.3°C
QNH1014 hPa
Density Alt761 ft
Elevation1,020 ft
Report Wrong Elevation
Raw Report
METAR SCCY 250700Z AUTO 07005KT 020V180 9999 FEW040 10/06 Q1014=

Extra information for SCCY:More info

Metar Taf Metar & Taf Last 4 Metars F.Rules Stats Wind Profile Meteogram Temp Stats Airport Information Weather charts Add Link Nearby VenuesMetar ALERT Operation Metar Decoded Social comments